createdAt,value
2023-05-03T00:01:10.573Z,102080.06
2023-05-03T00:03:40.285Z,102079.75
2023-05-03T00:06:15.742Z,102079.50
2023-05-03T00:08:46.013Z,102085.78
2023-05-03T00:11:16.179Z,102082.75
2023-05-03T00:13:46.249Z,102075.28
2023-05-03T00:16:16.220Z,102093.47
2023-05-03T00:18:47.794Z,102081.00
2023-05-03T00:21:18.096Z,102087.59
2023-05-03T00:23:48.198Z,102081.22
2023-05-03T00:26:18.253Z,102081.72
2023-05-03T00:28:48.048Z,102088.53
2023-05-03T00:31:17.956Z,102084.63
2023-05-03T00:33:50.443Z,102090.63
2023-05-03T00:36:20.453Z,102084.50
2023-05-03T00:38:50.323Z,102088.09
2023-05-03T00:41:20.434Z,102084.47
2023-05-03T00:43:50.468Z,102092.19
2023-05-03T00:46:20.849Z,102084.72
2023-05-03T00:48:51.787Z,102094.06
2023-05-03T00:51:23.691Z,102091.50
2023-05-03T00:53:52.024Z,102081.56
2023-05-03T00:56:23.980Z,102095.56
2023-05-03T00:58:53.953Z,102085.59
2023-05-03T01:01:24.322Z,102088.34
2023-05-03T01:03:54.505Z,102089.09
2023-05-03T01:06:39.349Z,102088.72
2023-05-03T01:09:50.426Z,102081.44
2023-05-03T01:12:54.341Z,102079.66
2023-05-03T01:16:16.991Z,102081.47
2023-05-03T01:18:51.974Z,102079.69
2023-05-03T01:21:24.240Z,102071.38
2023-05-03T01:24:19.174Z,102077.25
2023-05-03T01:26:47.178Z,102082.38
2023-05-03T01:29:15.855Z,102089.97
2023-05-03T01:32:19.437Z,102086.53
2023-05-03T01:35:21.011Z,102088.03
2023-05-03T01:37:52.779Z,102085.53
2023-05-03T01:40:26.990Z,102083.47
2023-05-03T01:42:59.873Z,102084.31
2023-05-03T01:45:31.273Z,102083.66
2023-05-03T01:48:01.638Z,102083.25
2023-05-03T01:50:31.581Z,102088.31
2023-05-03T01:53:02.135Z,102082.50
2023-05-03T01:55:32.371Z,102089.75
2023-05-03T01:58:01.048Z,102082.72
2023-05-03T02:00:29.524Z,102085.06
2023-05-03T02:02:58.493Z,102086.38
2023-05-03T02:05:26.253Z,102094.78
2023-05-03T02:07:54.714Z,102085.50
2023-05-03T02:10:22.883Z,102087.56
2023-05-03T02:12:51.553Z,102092.97
2023-05-03T02:15:22.721Z,102092.53
2023-05-03T02:17:51.396Z,102095.41
2023-05-03T02:20:19.789Z,102093.63
2023-05-03T02:22:47.989Z,102093.91
2023-05-03T02:25:16.454Z,102100.13
2023-05-03T02:27:44.880Z,102104.66
2023-05-03T02:30:13.682Z,102104.66
2023-05-03T02:32:41.939Z,102097.91
2023-05-03T02:35:10.812Z,102109.25
2023-05-03T02:37:38.720Z,102103.88
2023-05-03T02:40:09.786Z,102107.81
2023-05-03T02:42:40.950Z,102110.22
2023-05-03T02:45:11.894Z,102109.75
2023-05-03T02:47:42.206Z,102113.78
2023-05-03T02:50:12.444Z,102113.56
2023-05-03T02:52:42.625Z,102116.41
2023-05-03T02:55:12.859Z,102122.72
2023-05-03T02:57:43.316Z,102115.59
2023-05-03T03:00:17.841Z,102120.94
2023-05-03T03:02:48.186Z,102123.56
2023-05-03T03:05:18.763Z,102125.56
2023-05-03T03:07:49.064Z,102130.72
2023-05-03T03:10:19.435Z,102124.75
2023-05-03T03:12:49.933Z,102122.59
2023-05-03T03:15:20.148Z,102130.00
2023-05-03T03:17:50.304Z,102127.50
2023-05-03T03:20:20.506Z,102131.53
2023-05-03T03:22:50.718Z,102131.44
2023-05-03T03:25:21.657Z,102133.78
2023-05-03T03:27:51.848Z,102141.41
2023-05-03T03:30:22.205Z,102137.25
2023-05-03T03:32:50.456Z,102143.78
2023-05-03T03:35:19.786Z,102147.22
2023-05-03T03:37:47.402Z,102148.53
2023-05-03T03:40:15.806Z,102150.91
2023-05-03T03:42:44.441Z,102153.75
2023-05-03T03:45:13.184Z,102159.69
2023-05-03T03:47:41.176Z,102157.19
2023-05-03T03:50:10.355Z,102162.91
2023-05-03T03:52:38.206Z,102155.16
2023-05-03T03:55:07.752Z,102160.66
2023-05-03T03:57:37.756Z,102165.75
2023-05-03T04:00:11.946Z,102173.38
2023-05-03T04:02:42.534Z,102166.25
2023-05-03T04:05:12.976Z,102167.91
2023-05-03T04:07:43.224Z,102175.06
2023-05-03T04:10:13.353Z,102171.50
2023-05-03T04:12:43.598Z,102188.06
2023-05-03T04:15:14.143Z,102193.91
2023-05-03T04:17:44.411Z,102186.69
2023-05-03T04:20:14.729Z,102193.72
2023-05-03T04:22:45.026Z,102186.09
2023-05-03T04:25:15.243Z,102201.38
2023-05-03T04:27:47.550Z,102197.69
2023-05-03T04:30:18.283Z,102192.09
2023-05-03T04:32:48.463Z,102197.91
2023-05-03T04:35:18.894Z,102199.72
2023-05-03T04:37:49.103Z,102208.22
2023-05-03T04:40:19.938Z,102206.31
2023-05-03T04:42:50.163Z,102208.59
2023-05-03T04:45:21.166Z,102218.25
2023-05-03T04:47:51.449Z,102209.16
2023-05-03T04:50:21.728Z,102213.56
2023-05-03T04:52:51.957Z,102210.31
2023-05-03T04:55:22.326Z,102208.25
2023-05-03T04:57:52.579Z,102212.75
2023-05-03T05:00:23.852Z,102219.28
2023-05-03T05:02:54.255Z,102220.53
2023-05-03T05:05:24.449Z,102220.34
2023-05-03T05:07:54.603Z,102229.59
2023-05-03T05:10:24.938Z,102226.53
2023-05-03T05:12:55.232Z,102218.81
2023-05-03T05:15:25.330Z,102215.72
2023-05-03T05:17:55.819Z,102221.47
2023-05-03T05:20:26.696Z,102218.44
2023-05-03T05:22:56.996Z,102224.19
2023-05-03T05:25:27.460Z,102221.97
2023-05-03T05:27:57.616Z,102226.84
2023-05-03T05:30:27.726Z,102225.31
2023-05-03T05:32:58.008Z,102233.25
2023-05-03T05:35:28.486Z,102238.09
2023-05-03T05:37:58.632Z,102241.03
2023-05-03T05:40:28.733Z,102247.19
2023-05-03T05:42:57.515Z,102242.75
2023-05-03T05:45:25.925Z,102247.78
2023-05-03T05:47:54.244Z,102247.63
2023-05-03T05:50:23.029Z,102251.06
2023-05-03T05:52:55.286Z,102255.63
2023-05-03T05:55:25.607Z,102246.94
2023-05-03T05:57:55.751Z,102252.88
2023-05-03T06:00:26.332Z,102256.34
2023-05-03T06:02:56.769Z,102252.56
2023-05-03T06:05:27.060Z,102253.75
2023-05-03T06:07:57.251Z,102252.97
2023-05-03T06:10:27.422Z,102240.81
2023-05-03T06:12:57.660Z,102258.31
2023-05-03T06:15:27.946Z,102257.22
2023-05-03T06:17:58.106Z,102263.88
2023-05-03T06:20:28.310Z,102264.69
2023-05-03T06:22:58.501Z,102264.13
2023-05-03T06:25:28.758Z,102264.09
2023-05-03T06:27:58.867Z,102269.03
2023-05-03T06:30:28.928Z,102270.00
2023-05-03T06:32:59.081Z,102273.59
2023-05-03T06:35:29.648Z,102271.19
2023-05-03T06:37:59.837Z,102274.75
2023-05-03T06:40:29.968Z,102265.19
2023-05-03T06:43:00.078Z,102267.16
2023-05-03T06:45:30.219Z,102273.16
2023-05-03T06:48:00.548Z,102275.22
2023-05-03T06:50:30.961Z,102280.34
2023-05-03T06:53:01.119Z,102267.41
2023-05-03T06:55:33.172Z,102279.19
2023-05-03T06:58:03.434Z,102275.81
2023-05-03T07:00:33.683Z,102277.56
2023-05-03T07:03:02.070Z,102276.44
2023-05-03T07:05:30.650Z,102273.13
2023-05-03T07:07:58.835Z,102278.78
2023-05-03T07:10:31.254Z,102268.38
2023-05-03T07:12:58.844Z,102274.00
2023-05-03T07:15:27.293Z,102273.28
2023-05-03T07:17:55.758Z,102268.75
2023-05-03T07:20:24.217Z,102280.53
2023-05-03T07:22:52.543Z,102280.63
2023-05-03T07:25:21.057Z,102275.63
2023-05-03T07:27:49.362Z,102278.41
2023-05-03T07:30:18.380Z,102282.09
2023-05-03T07:32:46.346Z,102279.09
2023-05-03T07:35:15.636Z,102272.56
2023-05-03T07:37:43.549Z,102275.19
2023-05-03T07:40:12.467Z,102275.88
2023-05-03T07:42:40.021Z,102283.44
2023-05-03T07:45:09.353Z,102277.94
2023-05-03T07:47:40.361Z,102280.72
2023-05-03T07:50:10.918Z,102272.22
2023-05-03T07:52:42.482Z,102270.50
2023-05-03T07:55:12.793Z,102265.56
2023-05-03T07:57:42.978Z,102262.09
2023-05-03T08:00:15.032Z,102266.16
2023-05-03T08:02:45.410Z,102261.91
2023-05-03T08:05:15.963Z,102258.59
2023-05-03T08:07:46.600Z,102265.41
2023-05-03T08:10:16.980Z,102261.44
2023-05-03T08:12:48.126Z,102271.72
2023-05-03T08:15:18.406Z,102271.41
2023-05-03T08:17:48.854Z,102254.28
2023-05-03T08:20:19.003Z,102259.38
2023-05-03T08:22:49.130Z,102266.47
2023-05-03T08:25:19.803Z,102259.84
2023-05-03T08:27:49.966Z,102267.66
2023-05-03T08:30:22.321Z,102259.72
2023-05-03T08:32:53.241Z,102260.38
2023-05-03T08:35:23.434Z,102260.66
2023-05-03T08:37:53.880Z,102252.00
2023-05-03T08:40:28.326Z,102248.94
2023-05-03T08:43:10.092Z,102259.59
2023-05-03T08:45:40.240Z,102273.56
2023-05-03T08:48:11.778Z,102274.53
2023-05-03T08:50:42.927Z,102276.44
2023-05-03T08:53:13.142Z,102275.16
2023-05-03T08:55:44.689Z,102274.88
2023-05-03T08:58:14.925Z,102275.69
2023-05-03T09:00:45.469Z,102269.59
2023-05-03T09:03:13.757Z,102271.97
2023-05-03T09:05:44.516Z,102267.91
2023-05-03T09:08:14.791Z,102269.19
2023-05-03T09:10:45.168Z,102271.19
2023-05-03T09:13:15.359Z,102282.63
2023-05-03T09:15:58.463Z,102274.97
2023-05-03T09:18:30.748Z,102277.66
2023-05-03T09:21:00.865Z,102274.16
2023-05-03T09:23:31.975Z,102277.97
2023-05-03T09:32:06.803Z,102280.81
2023-05-03T09:34:37.461Z,102272.75
2023-05-03T09:37:07.729Z,102271.97
2023-05-03T09:39:37.826Z,102274.78
2023-05-03T09:42:26.054Z,102276.28
2023-05-03T09:44:56.223Z,102279.41
2023-05-03T09:47:26.121Z,102274.53
2023-05-03T09:49:56.764Z,102273.63
2023-05-03T09:52:31.085Z,102267.47
2023-05-03T09:55:01.531Z,102263.09
2023-05-03T09:57:33.676Z,102276.38
2023-05-03T10:00:04.291Z,102261.25
2023-05-03T10:02:35.148Z,102255.56
2023-05-03T10:05:08.152Z,102260.78
2023-05-03T10:07:43.350Z,102252.16
2023-05-03T10:10:12.268Z,102257.44
2023-05-03T10:12:41.987Z,102258.91
2023-05-03T10:15:19.765Z,102260.06
2023-05-03T10:17:58.171Z,102262.28
2023-05-03T10:20:42.140Z,102265.47
2023-05-03T10:23:14.579Z,102258.88
2023-05-03T10:26:22.914Z,102267.44
2023-05-03T10:28:53.023Z,102263.16
2023-05-03T10:31:47.309Z,102265.16
2023-05-03T10:34:26.056Z,102255.03
2023-05-03T10:42:09.705Z,102251.72
2023-05-03T10:44:56.026Z,102259.19
2023-05-03T10:47:26.676Z,102245.97
2023-05-03T10:50:26.108Z,102253.47
2023-05-03T10:52:56.226Z,102257.09
2023-05-03T10:55:28.185Z,102238.69
2023-05-03T10:58:01.633Z,102247.88
2023-05-03T11:00:44.692Z,102243.25
2023-05-03T11:04:13.873Z,102238.09
2023-05-03T11:06:46.313Z,102231.53
2023-05-03T11:09:15.819Z,102235.91
2023-05-03T11:11:43.970Z,102233.63
2023-05-03T11:14:14.018Z,102238.19
2023-05-03T11:16:51.259Z,102234.78
2023-05-03T11:19:21.609Z,102234.03
2023-05-03T11:21:52.436Z,102229.44
2023-05-03T11:24:22.726Z,102230.38
2023-05-03T11:26:52.904Z,102228.56
2023-05-03T11:29:26.277Z,102230.75
2023-05-03T11:31:56.683Z,102225.91
2023-05-03T11:34:27.019Z,102225.22
2023-05-03T11:36:59.878Z,102225.63
2023-05-03T11:39:33.398Z,102209.91
2023-05-03T11:42:07.967Z,102216.81
2023-05-03T11:44:38.413Z,102215.22
2023-05-03T11:47:09.676Z,102205.31
2023-05-03T11:49:40.060Z,102211.19
2023-05-03T11:52:10.338Z,102211.63
2023-05-03T11:54:40.704Z,102204.56
2023-05-03T11:57:15.007Z,102200.16
2023-05-03T11:59:45.832Z,102197.63
2023-05-03T12:02:16.148Z,102193.72
2023-05-03T12:04:46.539Z,102201.00
2023-05-03T12:07:19.591Z,102203.59
2023-05-03T12:10:06.849Z,102205.78
2023-05-03T12:12:47.085Z,102196.03
2023-05-03T12:15:34.039Z,102201.31
2023-05-03T12:18:11.478Z,102192.16
2023-05-03T12:21:28.995Z,102188.31
2023-05-03T12:23:29.910Z,102193.59
2023-05-03T12:26:00.892Z,102187.13
2023-05-03T12:28:31.526Z,102181.19
2023-05-03T12:31:03.138Z,102185.88
2023-05-03T12:33:38.164Z,102182.59
2023-05-03T12:36:10.043Z,102183.50
2023-05-03T12:38:43.281Z,102183.88
2023-05-03T12:41:17.107Z,102177.31
2023-05-03T12:44:00.428Z,102174.63
2023-05-03T12:46:34.885Z,102179.56
2023-05-03T12:49:07.950Z,102178.00
2023-05-03T12:51:42.264Z,102183.44
2023-05-03T12:54:11.891Z,102182.06
2023-05-03T12:56:47.719Z,102171.91
2023-05-03T12:59:39.121Z,102166.75
2023-05-03T13:04:57.201Z,102161.09
2023-05-03T13:07:32.121Z,102171.09
2023-05-03T13:12:40.915Z,102161.94
2023-05-03T13:15:11.609Z,102161.47
2023-05-03T13:17:41.825Z,102160.56
2023-05-03T13:20:13.927Z,102157.31
2023-05-03T13:22:44.257Z,102161.19
2023-05-03T13:25:13.409Z,102151.03
2023-05-03T13:27:41.855Z,102138.53
2023-05-03T13:30:11.029Z,102138.28
2023-05-03T13:32:39.137Z,102130.00
2023-05-03T13:35:09.750Z,102128.91
2023-05-03T13:37:39.978Z,102128.44
2023-05-03T13:40:11.467Z,102125.28
2023-05-03T13:42:41.763Z,102130.97
2023-05-03T13:45:13.688Z,102132.69
2023-05-03T13:48:05.316Z,102125.00
2023-05-03T13:50:34.008Z,102107.50
2023-05-03T13:53:04.187Z,102109.69
2023-05-03T13:55:34.373Z,102107.72
2023-05-03T13:58:04.490Z,102115.31
2023-05-03T14:00:34.621Z,102109.91
2023-05-03T14:03:04.997Z,102109.28
2023-05-03T14:05:35.916Z,102100.72
2023-05-03T14:08:05.826Z,102094.63
2023-05-03T14:10:36.468Z,102097.66
2023-05-03T14:13:06.005Z,102090.91
2023-05-03T14:15:45.436Z,102098.03
2023-05-03T14:18:14.474Z,102097.91
2023-05-03T14:20:42.455Z,102093.19
2023-05-03T14:23:10.789Z,102091.81
2023-05-03T14:25:38.942Z,102081.38
2023-05-03T14:28:07.559Z,102089.13
2023-05-03T14:30:36.547Z,102091.81
2023-05-03T14:33:04.326Z,102088.72
2023-05-03T14:35:32.795Z,102091.13
2023-05-03T14:38:01.301Z,102087.84
2023-05-03T14:40:29.747Z,102084.88
2023-05-03T14:42:58.239Z,102085.56
2023-05-03T14:45:26.878Z,102087.00
2023-05-03T14:47:55.172Z,102081.16
2023-05-03T14:50:23.880Z,102081.53
2023-05-03T14:52:52.380Z,102082.47
2023-05-03T14:55:20.809Z,102078.28
2023-05-03T14:57:49.456Z,102080.84
2023-05-03T15:00:18.557Z,102065.94
2023-05-03T15:02:47.002Z,102071.31
2023-05-03T15:05:15.126Z,102074.88
2023-05-03T15:07:43.204Z,102065.38
2023-05-03T15:10:11.738Z,102068.88
2023-05-03T15:12:40.354Z,102064.69
2023-05-03T15:15:10.367Z,102079.75
2023-05-03T15:17:40.258Z,102072.81
2023-05-03T15:20:10.612Z,102084.00
2023-05-03T15:22:40.873Z,102073.28
2023-05-03T15:25:11.251Z,102082.06
2023-05-03T15:27:41.357Z,102071.13
2023-05-03T15:30:12.488Z,102067.38
2023-05-03T15:32:42.966Z,102068.56
2023-05-03T15:35:13.338Z,102067.25
2023-05-03T15:37:43.547Z,102057.44
2023-05-03T15:40:13.967Z,102062.81
2023-05-03T15:42:44.131Z,102062.19
2023-05-03T15:45:15.581Z,102057.53
2023-05-03T15:47:46.244Z,102057.88
2023-05-03T15:50:16.567Z,102061.31
2023-05-03T15:52:46.945Z,102055.59
2023-05-03T15:55:19.466Z,102056.13
2023-05-03T15:57:49.596Z,102056.59
2023-05-03T16:00:20.438Z,102051.13
2023-05-03T16:02:50.752Z,102048.34
2023-05-03T16:05:21.027Z,102057.31
2023-05-03T16:07:51.956Z,102042.56
2023-05-03T16:10:24.734Z,102043.69
2023-05-03T16:12:55.290Z,102047.88
2023-05-03T16:15:25.481Z,102049.88
2023-05-03T16:17:55.843Z,102039.19
2023-05-03T16:20:26.120Z,102036.66
2023-05-03T16:22:56.693Z,102033.53
2023-05-03T16:25:29.082Z,102031.22
2023-05-03T16:27:59.716Z,102029.03
2023-05-03T16:30:30.118Z,102035.00
2023-05-03T16:33:00.690Z,102029.06
2023-05-03T16:35:31.137Z,102020.84
2023-05-03T16:38:03.030Z,102026.75
2023-05-03T16:40:32.664Z,102023.09
2023-05-03T16:43:01.216Z,102031.16
2023-05-03T16:45:31.421Z,102034.78
2023-05-03T16:48:04.737Z,102027.06
2023-05-03T16:50:37.768Z,102021.28
2023-05-03T16:53:07.956Z,102029.16
2023-05-03T16:55:38.088Z,102030.13
2023-05-03T16:58:08.369Z,102033.25
2023-05-03T17:00:38.782Z,102027.06
2023-05-03T17:03:09.006Z,102021.44
2023-05-03T17:05:39.434Z,102023.03
2023-05-03T17:08:09.557Z,102025.50
2023-05-03T17:10:39.664Z,102024.34
2023-05-03T17:13:10.115Z,102034.19
2023-05-03T17:15:40.300Z,102030.72
2023-05-03T17:18:10.494Z,102037.31
2023-05-03T17:20:40.711Z,102034.63
2023-05-03T17:23:10.886Z,102036.09
2023-05-03T17:25:42.754Z,102034.00
2023-05-03T17:28:12.932Z,102034.59
2023-05-03T17:30:43.119Z,102038.06
2023-05-03T17:33:13.302Z,102035.13
2023-05-03T17:35:44.554Z,102035.25
2023-05-03T17:38:15.993Z,102032.34
2023-05-03T17:40:46.563Z,102032.13
2023-05-03T17:43:17.917Z,102033.44
2023-05-03T17:45:48.242Z,102028.44
2023-05-03T17:48:18.363Z,102021.66
2023-05-03T17:50:58.940Z,102025.13
2023-05-03T17:53:29.158Z,102022.25
2023-05-03T17:55:59.345Z,102031.59
2023-05-03T17:58:29.453Z,102036.84
2023-05-03T18:00:59.591Z,102035.09
2023-05-03T18:03:30.045Z,102033.34
2023-05-03T18:06:00.202Z,102037.38
2023-05-03T18:08:30.435Z,102032.47
2023-05-03T18:11:01.611Z,102029.28
2023-05-03T18:13:33.442Z,102032.97
2023-05-03T18:16:08.558Z,102039.69
2023-05-03T18:18:38.773Z,102042.13
2023-05-03T18:21:11.848Z,102046.41
2023-05-03T18:23:43.133Z,102044.41
2023-05-03T18:26:14.561Z,102045.16
2023-05-03T18:28:44.719Z,102047.88
2023-05-03T18:31:14.869Z,102053.66
2023-05-03T18:33:45.077Z,102055.41
2023-05-03T18:36:15.742Z,102045.81
2023-05-03T18:38:47.273Z,102048.72
2023-05-03T18:41:17.700Z,102043.56
2023-05-03T18:43:48.271Z,102049.78
2023-05-03T18:46:20.468Z,102049.03
2023-05-03T18:48:50.840Z,102056.84
2023-05-03T18:51:20.949Z,102054.72
2023-05-03T18:53:51.062Z,102057.81
2023-05-03T18:56:21.607Z,102064.84
2023-05-03T18:58:52.062Z,102061.56
2023-05-03T19:01:20.166Z,102057.78
2023-05-03T19:03:48.622Z,102068.69
2023-05-03T19:06:16.956Z,102061.00
2023-05-03T19:08:47.141Z,102070.56
2023-05-03T19:11:17.481Z,102067.38
2023-05-03T19:13:46.427Z,102063.34
2023-05-03T19:16:17.682Z,102067.88
2023-05-03T19:18:48.245Z,102076.22
2023-05-03T19:21:19.737Z,102069.38
2023-05-03T19:23:49.824Z,102076.06
2023-05-03T19:26:20.004Z,102074.47
2023-05-03T19:28:50.155Z,102076.41
2023-05-03T19:31:20.390Z,102080.59
2023-05-03T19:33:50.479Z,102080.91
2023-05-03T19:36:20.678Z,102072.56
2023-05-03T19:38:50.964Z,102066.25
2023-05-03T19:41:21.464Z,102069.00
2023-05-03T19:43:55.606Z,102062.41
2023-05-03T19:46:25.791Z,102061.00
2023-05-03T19:48:55.868Z,102069.31
2023-05-03T19:51:26.619Z,102063.50
2023-05-03T19:53:57.666Z,102065.16
2023-05-03T19:56:28.030Z,102064.03
2023-05-03T19:58:58.284Z,102071.50
2023-05-03T20:01:29.332Z,102072.88
2023-05-03T20:03:59.638Z,102061.50
2023-05-03T20:06:29.918Z,102066.47
2023-05-03T20:09:00.364Z,102057.63
2023-05-03T20:11:30.553Z,102058.44
2023-05-03T20:14:00.955Z,102064.22
2023-05-03T20:16:33.644Z,102067.78
2023-05-03T20:19:04.168Z,102057.56
2023-05-03T20:21:34.384Z,102060.31
2023-05-03T20:24:05.029Z,102069.13
2023-05-03T20:26:32.980Z,102062.75
2023-05-03T20:29:01.416Z,102064.38
2023-05-03T20:31:29.798Z,102065.19
2023-05-03T20:33:58.357Z,102063.25
2023-05-03T20:36:26.727Z,102066.81
2023-05-03T20:38:55.867Z,102062.38
2023-05-03T20:41:24.332Z,102070.91
2023-05-03T20:43:55.008Z,102070.28
2023-05-03T20:46:23.502Z,102065.88
2023-05-03T20:48:52.080Z,102073.03
2023-05-03T20:51:20.445Z,102071.88
2023-05-03T20:53:48.817Z,102058.03
2023-05-03T20:56:17.674Z,102065.47
2023-05-03T20:58:45.984Z,102064.59
2023-05-03T21:01:14.526Z,102066.22
2023-05-03T21:03:42.599Z,102057.66
2023-05-03T21:06:10.813Z,102054.59
2023-05-03T21:08:39.284Z,102058.69
2023-05-03T21:11:08.552Z,102064.72
2023-05-03T21:13:36.174Z,102064.41
2023-05-03T21:16:08.079Z,102061.38
2023-05-03T21:18:38.273Z,102057.19
2023-05-03T21:21:08.468Z,102055.81
2023-05-03T21:23:38.627Z,102060.75
2023-05-03T21:26:08.901Z,102053.03
2023-05-03T21:28:39.185Z,102055.47
2023-05-03T21:31:09.767Z,102058.75
2023-05-03T21:33:39.969Z,102049.34
2023-05-03T21:36:10.268Z,102054.00
2023-05-03T21:38:40.941Z,102051.53
2023-05-03T21:41:11.365Z,102047.34
2023-05-03T21:43:41.583Z,102051.47
2023-05-03T21:46:11.841Z,102054.50
2023-05-03T21:48:42.030Z,102058.59
2023-05-03T21:51:25.163Z,102057.75
2023-05-03T21:53:55.404Z,102053.00
2023-05-03T21:56:25.612Z,102041.69
2023-05-03T21:58:55.811Z,102052.38
2023-05-03T22:01:26.183Z,102052.06
2023-05-03T22:03:56.624Z,102049.84
2023-05-03T22:06:27.174Z,102047.88
2023-05-03T22:08:58.221Z,102047.81
2023-05-03T22:11:28.979Z,102045.59
2023-05-03T22:14:07.384Z,102042.50
2023-05-03T22:16:42.258Z,102045.22
2023-05-03T22:19:10.288Z,102045.72
2023-05-03T22:21:38.007Z,102045.69
2023-05-03T22:24:07.677Z,102041.78
2023-05-03T22:26:34.913Z,102035.38
2023-05-03T22:29:03.561Z,102030.66
2023-05-03T22:31:32.285Z,102045.44
2023-05-03T22:38:33.952Z,102042.84
2023-05-03T22:41:04.090Z,102044.69
2023-05-03T22:43:34.323Z,102043.53
2023-05-03T22:46:04.935Z,102039.63
2023-05-03T22:48:35.493Z,102040.16
2023-05-03T22:51:06.335Z,102044.22
2023-05-03T22:53:36.422Z,102028.22
2023-05-03T22:56:07.376Z,102038.41
2023-05-03T22:58:35.156Z,102038.91
2023-05-03T23:01:09.689Z,102034.50
2023-05-03T23:03:40.064Z,102040.50
2023-05-03T23:06:08.867Z,102034.69
2023-05-03T23:08:37.954Z,102042.38
2023-05-03T23:11:08.491Z,102034.03
2023-05-03T23:13:38.676Z,102030.69
2023-05-03T23:16:09.332Z,102034.56
2023-05-03T23:18:39.623Z,102035.03
2023-05-03T23:21:08.030Z,102025.13
2023-05-03T23:23:36.519Z,102022.63
2023-05-03T23:26:04.983Z,102039.38
2023-05-03T23:28:33.441Z,102033.06
2023-05-03T23:31:01.674Z,102025.06
2023-05-03T23:33:31.286Z,102030.81
2023-05-03T23:35:58.686Z,102031.91
2023-05-03T23:38:27.258Z,102026.16
2023-05-03T23:40:55.455Z,102035.22
2023-05-03T23:43:23.842Z,102023.16
2023-05-03T23:45:52.286Z,102024.31
2023-05-03T23:48:20.637Z,102032.03
2023-05-03T23:50:49.112Z,102023.31
2023-05-03T23:53:17.626Z,102031.28
2023-05-03T23:55:47.991Z,102026.59
2023-05-03T23:58:18.196Z,102031.84
